sensor_id;sensor_type;location;lat;lon;timestamp;pressure;altitude;pressure_sealevel;temperature
65290;BMP180;51893;59.754;10.110;2023-04-30T00:00:00;101613.00;;;4.00
65290;BMP180;51893;59.754;10.110;2023-04-30T00:02:29;101612.00;;;3.98
65290;BMP180;51893;59.754;10.110;2023-04-30T00:04:59;101606.80;;;3.90
65290;BMP180;51893;59.754;10.110;2023-04-30T00:07:27;101612.80;;;3.90
65290;BMP180;51893;59.754;10.110;2023-04-30T00:09:57;101608.80;;;3.90
65290;BMP180;51893;59.754;10.110;2023-04-30T00:12:27;101605.20;;;3.90
65290;BMP180;51893;59.754;10.110;2023-04-30T00:14:57;101599.20;;;3.90
65290;BMP180;51893;59.754;10.110;2023-04-30T00:17:29;101603.60;;;3.88
65290;BMP180;51893;59.754;10.110;2023-04-30T00:19:58;101606.00;;;3.80
65290;BMP180;51893;59.754;10.110;2023-04-30T00:22:26;101608.00;;;3.84
65290;BMP180;51893;59.754;10.110;2023-04-30T00:24:54;101610.60;;;3.80
65290;BMP180;51893;59.754;10.110;2023-04-30T00:27:22;101610.80;;;3.80
65290;BMP180;51893;59.754;10.110;2023-04-30T00:29:50;101616.00;;;3.74
65290;BMP180;51893;59.754;10.110;2023-04-30T00:32:18;101620.60;;;3.70
65290;BMP180;51893;59.754;10.110;2023-04-30T00:34:51;101615.20;;;3.70
65290;BMP180;51893;59.754;10.110;2023-04-30T00:37:19;101620.40;;;3.68
65290;BMP180;51893;59.754;10.110;2023-04-30T00:39:48;101619.40;;;3.60
65290;BMP180;51893;59.754;10.110;2023-04-30T00:42:16;101619.00;;;3.50
65290;BMP180;51893;59.754;10.110;2023-04-30T00:44:44;101621.20;;;3.50
65290;BMP180;51893;59.754;10.110;2023-04-30T00:47:12;101616.20;;;3.40
65290;BMP180;51893;59.754;10.110;2023-04-30T00:49:41;101621.80;;;3.30
65290;BMP180;51893;59.754;10.110;2023-04-30T00:52:09;101621.60;;;3.30
65290;BMP180;51893;59.754;10.110;2023-04-30T00:54:37;101625.60;;;3.30
65290;BMP180;51893;59.754;10.110;2023-04-30T00:57:11;101627.80;;;3.30
65290;BMP180;51893;59.754;10.110;2023-04-30T00:59:40;101633.40;;;3.24
65290;BMP180;51893;59.754;10.110;2023-04-30T01:02:09;101630.60;;;3.22
65290;BMP180;51893;59.754;10.110;2023-04-30T01:04:38;101632.80;;;3.20
65290;BMP180;51893;59.754;10.110;2023-04-30T01:07:06;101632.60;;;3.20
65290;BMP180;51893;59.754;10.110;2023-04-30T01:09:34;101634.80;;;3.20
65290;BMP180;51893;59.754;10.110;2023-04-30T01:18:30;101640.60;;;3.20
65290;BMP180;51893;59.754;10.110;2023-04-30T01:21:06;101639.20;;;3.20
65290;BMP180;51893;59.754;10.110;2023-04-30T01:29:33;101643.60;;;3.20
65290;BMP180;51893;59.754;10.110;2023-04-30T01:32:03;101642.60;;;3.20
65290;BMP180;51893;59.754;10.110;2023-04-30T01:34:31;101642.80;;;3.10
65290;BMP180;51893;59.754;10.110;2023-04-30T01:37:35;101641.00;;;3.00
65290;BMP180;51893;59.754;10.110;2023-04-30T01:42:55;101631.00;;;2.82
65290;BMP180;51893;59.754;10.110;2023-04-30T01:49:14;101633.40;;;2.70
65290;BMP180;51893;59.754;10.110;2023-04-30T01:51:41;101634.00;;;2.70
65290;BMP180;51893;59.754;10.110;2023-04-30T01:54:19;101638.20;;;2.68
65290;BMP180;51893;59.754;10.110;2023-04-30T01:57:15;101641.60;;;2.62
65290;BMP180;51893;59.754;10.110;2023-04-30T01:59:45;101642.40;;;2.60
65290;BMP180;51893;59.754;10.110;2023-04-30T02:02:13;101639.00;;;2.64
65290;BMP180;51893;59.754;10.110;2023-04-30T02:04:41;101639.80;;;2.70
65290;BMP180;51893;59.754;10.110;2023-04-30T02:07:12;101643.20;;;2.68
65290;BMP180;51893;59.754;10.110;2023-04-30T02:09:44;101646.40;;;2.60
65290;BMP180;51893;59.754;10.110;2023-04-30T02:12:13;101645.60;;;2.50
65290;BMP180;51893;59.754;10.110;2023-04-30T02:14:42;101650.40;;;2.46
65290;BMP180;51893;59.754;10.110;2023-04-30T02:17:11;101651.40;;;2.50
65290;BMP180;51893;59.754;10.110;2023-04-30T02:19:39;101653.60;;;2.50
65290;BMP180;51893;59.754;10.110;2023-04-30T02:22:09;101653.40;;;2.50
65290;BMP180;51893;59.754;10.110;2023-04-30T02:24:37;101658.80;;;2.50
65290;BMP180;51893;59.754;10.110;2023-04-30T02:27:05;101660.20;;;2.40
65290;BMP180;51893;59.754;10.110;2023-04-30T02:29:35;101663.60;;;2.30
65290;BMP180;51893;59.754;10.110;2023-04-30T02:32:05;101661.40;;;2.30
65290;BMP180;51893;59.754;10.110;2023-04-30T02:34:33;101662.60;;;2.30
65290;BMP180;51893;59.754;10.110;2023-04-30T02:37:01;101662.80;;;2.16
65290;BMP180;51893;59.754;10.110;2023-04-30T02:39:30;101664.00;;;2.00
65290;BMP180;51893;59.754;10.110;2023-04-30T02:41:58;101661.00;;;2.00
65290;BMP180;51893;59.754;10.110;2023-04-30T02:44:28;101658.60;;;2.00
65290;BMP180;51893;59.754;10.110;2023-04-30T02:46:57;101662.60;;;1.90
65290;BMP180;51893;59.754;10.110;2023-04-30T02:49:26;101663.40;;;1.80
65290;BMP180;51893;59.754;10.110;2023-04-30T02:51:54;101661.80;;;1.70
65290;BMP180;51893;59.754;10.110;2023-04-30T02:54:23;101668.20;;;1.70
65290;BMP180;51893;59.754;10.110;2023-04-30T02:56:53;101670.40;;;1.70
65290;BMP180;51893;59.754;10.110;2023-04-30T02:59:20;101666.60;;;1.70
65290;BMP180;51893;59.754;10.110;2023-04-30T03:01:49;101668.00;;;1.70
65290;BMP180;51893;59.754;10.110;2023-04-30T03:04:18;101669.80;;;1.80
65290;BMP180;51893;59.754;10.110;2023-04-30T03:06:46;101670.60;;;1.70
65290;BMP180;51893;59.754;10.110;2023-04-30T03:09:14;101669.40;;;1.70
65290;BMP180;51893;59.754;10.110;2023-04-30T03:11:42;101668.40;;;1.70
65290;BMP180;51893;59.754;10.110;2023-04-30T03:14:10;101671.20;;;1.70
65290;BMP180;51893;59.754;10.110;2023-04-30T03:16:40;101669.40;;;1.70
65290;BMP180;51893;59.754;10.110;2023-04-30T03:19:10;101665.00;;;1.70
65290;BMP180;51893;59.754;10.110;2023-04-30T03:21:38;101666.20;;;1.70
65290;BMP180;51893;59.754;10.110;2023-04-30T03:24:06;101668.80;;;1.60
65290;BMP180;51893;59.754;10.110;2023-04-30T03:26:35;101667.00;;;1.60
65290;BMP180;51893;59.754;10.110;2023-04-30T03:29:04;101671.00;;;1.60
65290;BMP180;51893;59.754;10.110;2023-04-30T03:31:32;101674.00;;;1.60
65290;BMP180;51893;59.754;10.110;2023-04-30T03:34:00;101675.40;;;1.60
65290;BMP180;51893;59.754;10.110;2023-04-30T03:36:28;101680.80;;;1.52
65290;BMP180;51893;59.754;10.110;2023-04-30T03:38:56;101677.40;;;1.40
65290;BMP180;51893;59.754;10.110;2023-04-30T03:41:25;101675.00;;;1.40
65290;BMP180;51893;59.754;10.110;2023-04-30T03:43:53;101675.40;;;1.34
65290;BMP180;51893;59.754;10.110;2023-04-30T03:46:21;101672.00;;;1.30
65290;BMP180;51893;59.754;10.110;2023-04-30T03:48:49;101676.80;;;1.30
65290;BMP180;51893;59.754;10.110;2023-04-30T03:51:19;101681.40;;;1.30
65290;BMP180;51893;59.754;10.110;2023-04-30T03:53:48;101683.60;;;1.30
65290;BMP180;51893;59.754;10.110;2023-04-30T03:56:16;101691.80;;;1.22
65290;BMP180;51893;59.754;10.110;2023-04-30T03:58:46;101695.40;;;1.18
65290;BMP180;51893;59.754;10.110;2023-04-30T04:01:14;101701.00;;;1.10
65290;BMP180;51893;59.754;10.110;2023-04-30T04:03:43;101705.60;;;1.10
65290;BMP180;51893;59.754;10.110;2023-04-30T04:06:11;101704.00;;;1.10
65290;BMP180;51893;59.754;10.110;2023-04-30T04:08:39;101709.40;;;1.08
65290;BMP180;51893;59.754;10.110;2023-04-30T04:11:11;101712.40;;;1.10
65290;BMP180;51893;59.754;10.110;2023-04-30T04:13:39;101715.80;;;1.10
65290;BMP180;51893;59.754;10.110;2023-04-30T04:16:10;101716.40;;;1.10
65290;BMP180;51893;59.754;10.110;2023-04-30T04:18:38;101723.00;;;1.10
65290;BMP180;51893;59.754;10.110;2023-04-30T04:21:06;101730.20;;;1.10
65290;BMP180;51893;59.754;10.110;2023-04-30T04:23:34;101730.20;;;1.10
65290;BMP180;51893;59.754;10.110;2023-04-30T04:26:02;101732.00;;;1.10
65290;BMP180;51893;59.754;10.110;2023-04-30T04:28:31;101736.20;;;1.10
65290;BMP180;51893;59.754;10.110;2023-04-30T04:30:59;101734.60;;;1.10
65290;BMP180;51893;59.754;10.110;2023-04-30T04:33:28;101740.00;;;1.10
65290;BMP180;51893;59.754;10.110;2023-04-30T04:35:55;101735.60;;;1.18
65290;BMP180;51893;59.754;10.110;2023-04-30T04:38:25;101736.80;;;1.20
65290;BMP180;51893;59.754;10.110;2023-04-30T04:40:53;101741.60;;;1.20
65290;BMP180;51893;59.754;10.110;2023-04-30T04:43:21;101741.60;;;1.20
65290;BMP180;51893;59.754;10.110;2023-04-30T04:45:49;101742.20;;;1.20
65290;BMP180;51893;59.754;10.110;2023-04-30T04:48:19;101741.80;;;1.20
65290;BMP180;51893;59.754;10.110;2023-04-30T04:50:47;101743.40;;;1.20
65290;BMP180;51893;59.754;10.110;2023-04-30T04:53:15;101744.80;;;1.20
65290;BMP180;51893;59.754;10.110;2023-04-30T04:55:45;101751.80;;;1.20
65290;BMP180;51893;59.754;10.110;2023-04-30T04:58:13;101751.60;;;1.30
65290;BMP180;51893;59.754;10.110;2023-04-30T05:00:41;101749.00;;;1.40
65290;BMP180;51893;59.754;10.110;2023-04-30T05:03:10;101753.40;;;1.50
65290;BMP180;51893;59.754;10.110;2023-04-30T05:05:38;101753.00;;;1.54
65290;BMP180;51893;59.754;10.110;2023-04-30T05:08:06;101760.00;;;1.60
65290;BMP180;51893;59.754;10.110;2023-04-30T05:10:34;101760.80;;;1.70
65290;BMP180;51893;59.754;10.110;2023-04-30T05:13:03;101765.80;;;1.80
65290;BMP180;51893;59.754;10.110;2023-04-30T05:15:31;101766.80;;;1.82
65290;BMP180;51893;59.754;10.110;2023-04-30T05:18:00;101766.60;;;1.90
65290;BMP180;51893;59.754;10.110;2023-04-30T05:20:28;101767.80;;;1.92
65290;BMP180;51893;59.754;10.110;2023-04-30T05:22:57;101771.60;;;2.00
65290;BMP180;51893;59.754;10.110;2023-04-30T05:25:25;101769.20;;;2.10
65290;BMP180;51893;59.754;10.110;2023-04-30T05:27:53;101773.40;;;2.20
65290;BMP180;51893;59.754;10.110;2023-04-30T05:30:21;101778.40;;;2.30
65290;BMP180;51893;59.754;10.110;2023-04-30T05:32:49;101774.80;;;2.40
65290;BMP180;51893;59.754;10.110;2023-04-30T05:35:19;101778.20;;;2.50
65290;BMP180;51893;59.754;10.110;2023-04-30T05:37:48;101781.00;;;2.60
65290;BMP180;51893;59.754;10.110;2023-04-30T05:40:16;101783.00;;;2.70
65290;BMP180;51893;59.754;10.110;2023-04-30T05:42:44;101784.00;;;2.70
65290;BMP180;51893;59.754;10.110;2023-04-30T05:45:13;101780.60;;;2.80
65290;BMP180;51893;59.754;10.110;2023-04-30T05:47:44;101778.00;;;2.90
65290;BMP180;51893;59.754;10.110;2023-04-30T05:50:12;101782.60;;;3.00
65290;BMP180;51893;59.754;10.110;2023-04-30T05:52:40;101783.60;;;3.14
65290;BMP180;51893;59.754;10.110;2023-04-30T05:55:08;101782.00;;;3.20
65290;BMP180;51893;59.754;10.110;2023-04-30T05:57:36;101780.20;;;3.40
65290;BMP180;51893;59.754;10.110;2023-04-30T06:00:05;101787.80;;;3.50
65290;BMP180;51893;59.754;10.110;2023-04-30T06:02:34;101790.40;;;3.62
65290;BMP180;51893;59.754;10.110;2023-04-30T06:05:05;101796.40;;;3.80
65290;BMP180;51893;59.754;10.110;2023-04-30T06:07:34;101794.00;;;3.90
65290;BMP180;51893;59.754;10.110;2023-04-30T06:10:03;101795.40;;;4.00
65290;BMP180;51893;59.754;10.110;2023-04-30T06:12:32;101795.20;;;4.10
65290;BMP180;51893;59.754;10.110;2023-04-30T06:15:00;101799.80;;;4.30
65290;BMP180;51893;59.754;10.110;2023-04-30T06:17:28;101799.40;;;4.40
65290;BMP180;51893;59.754;10.110;2023-04-30T06:19:56;101792.60;;;4.60
65290;BMP180;51893;59.754;10.110;2023-04-30T06:22:28;101793.20;;;4.70
65290;BMP180;51893;59.754;10.110;2023-04-30T06:24:57;101794.00;;;4.90
65290;BMP180;51893;59.754;10.110;2023-04-30T06:27:25;101795.00;;;5.00
65290;BMP180;51893;59.754;10.110;2023-04-30T06:29:54;101791.00;;;5.10
65290;BMP180;51893;59.754;10.110;2023-04-30T06:32:23;101792.40;;;5.22
65290;BMP180;51893;59.754;10.110;2023-04-30T06:34:52;101794.40;;;5.36
65290;BMP180;51893;59.754;10.110;2023-04-30T06:37:20;101791.40;;;5.50
65290;BMP180;51893;59.754;10.110;2023-04-30T06:39:48;101792.40;;;5.60
65290;BMP180;51893;59.754;10.110;2023-04-30T06:42:16;101793.80;;;5.76
65290;BMP180;51893;59.754;10.110;2023-04-30T06:44:46;101801.40;;;5.90
65290;BMP180;51893;59.754;10.110;2023-04-30T06:47:14;101802.80;;;6.00
65290;BMP180;51893;59.754;10.110;2023-04-30T06:49:42;101803.80;;;6.10
65290;BMP180;51893;59.754;10.110;2023-04-30T06:52:10;101805.00;;;6.20
65290;BMP180;51893;59.754;10.110;2023-04-30T06:54:41;101805.20;;;6.30
65290;BMP180;51893;59.754;10.110;2023-04-30T06:57:10;101806.80;;;6.40
65290;BMP180;51893;59.754;10.110;2023-04-30T06:59:39;101807.40;;;6.50
65290;BMP180;51893;59.754;10.110;2023-04-30T07:02:07;101806.00;;;6.60
65290;BMP180;51893;59.754;10.110;2023-04-30T07:04:35;101810.60;;;6.70
65290;BMP180;51893;59.754;10.110;2023-04-30T07:07:03;101808.40;;;6.80
65290;BMP180;51893;59.754;10.110;2023-04-30T07:09:31;101810.20;;;6.90
65290;BMP180;51893;59.754;10.110;2023-04-30T07:12:02;101810.20;;;7.00
65290;BMP180;51893;59.754;10.110;2023-04-30T07:14:30;101813.60;;;7.10
65290;BMP180;51893;59.754;10.110;2023-04-30T07:16:58;101812.00;;;7.20
65290;BMP180;51893;59.754;10.110;2023-04-30T07:19:26;101820.20;;;7.30
65290;BMP180;51893;59.754;10.110;2023-04-30T07:21:54;101815.40;;;7.32
65290;BMP180;51893;59.754;10.110;2023-04-30T07:24:22;101821.20;;;7.40
65290;BMP180;51893;59.754;10.110;2023-04-30T07:26:51;101819.20;;;7.50
65290;BMP180;51893;59.754;10.110;2023-04-30T07:29:20;101813.40;;;7.60
65290;BMP180;51893;59.754;10.110;2023-04-30T07:31:48;101818.80;;;7.70
65290;BMP180;51893;59.754;10.110;2023-04-30T07:34:18;101820.80;;;7.70
65290;BMP180;51893;59.754;10.110;2023-04-30T07:36:47;101821.60;;;7.80
65290;BMP180;51893;59.754;10.110;2023-04-30T07:39:16;101830.60;;;7.86
65290;BMP180;51893;59.754;10.110;2023-04-30T07:41:45;101827.80;;;7.90
65290;BMP180;51893;59.754;10.110;2023-04-30T07:44:13;101825.40;;;7.92
65290;BMP180;51893;59.754;10.110;2023-04-30T07:46:41;101831.00;;;8.10
65290;BMP180;51893;59.754;10.110;2023-04-30T07:49:09;101838.60;;;8.20
65290;BMP180;51893;59.754;10.110;2023-04-30T07:51:44;101836.80;;;8.20
65290;BMP180;51893;59.754;10.110;2023-04-30T07:54:12;101847.60;;;8.30
65290;BMP180;51893;59.754;10.110;2023-04-30T07:56:40;101839.40;;;8.40
65290;BMP180;51893;59.754;10.110;2023-04-30T07:59:10;101840.20;;;8.50
65290;BMP180;51893;59.754;10.110;2023-04-30T08:01:38;101848.20;;;8.50
65290;BMP180;51893;59.754;10.110;2023-04-30T08:04:06;101848.80;;;8.50
65290;BMP180;51893;59.754;10.110;2023-04-30T08:06:34;101841.40;;;8.50
65290;BMP180;51893;59.754;10.110;2023-04-30T08:09:03;101845.80;;;8.54
65290;BMP180;51893;59.754;10.110;2023-04-30T08:11:31;101843.20;;;8.60
65290;BMP180;51893;59.754;10.110;2023-04-30T08:14:00;101843.20;;;8.60
65290;BMP180;51893;59.754;10.110;2023-04-30T08:16:30;101852.00;;;8.70
65290;BMP180;51893;59.754;10.110;2023-04-30T08:19:00;101852.80;;;8.70
65290;BMP180;51893;59.754;10.110;2023-04-30T08:21:30;101841.80;;;8.88
65290;BMP180;51893;59.754;10.110;2023-04-30T08:23:58;101851.80;;;8.90
65290;BMP180;51893;59.754;10.110;2023-04-30T08:26:27;101848.40;;;8.98
65290;BMP180;51893;59.754;10.110;2023-04-30T08:28:55;101851.80;;;9.00
65290;BMP180;51893;59.754;10.110;2023-04-30T08:31:23;101848.60;;;9.06
65290;BMP180;51893;59.754;10.110;2023-04-30T08:33:52;101850.20;;;9.10
65290;BMP180;51893;59.754;10.110;2023-04-30T08:36:20;101857.20;;;9.20
65290;BMP180;51893;59.754;10.110;2023-04-30T08:38:48;101856.20;;;9.30
65290;BMP180;51893;59.754;10.110;2023-04-30T08:41:19;101856.40;;;9.40
65290;BMP180;51893;59.754;10.110;2023-04-30T08:43:52;101857.80;;;9.60
65290;BMP180;51893;59.754;10.110;2023-04-30T08:46:25;101859.60;;;9.70
65290;BMP180;51893;59.754;10.110;2023-04-30T08:48:53;101857.40;;;9.70
65290;BMP180;51893;59.754;10.110;2023-04-30T08:51:26;101864.00;;;9.70
65290;BMP180;51893;59.754;10.110;2023-04-30T08:53:58;101865.40;;;9.70
65290;BMP180;51893;59.754;10.110;2023-04-30T08:56:28;101879.00;;;9.80
65290;BMP180;51893;59.754;10.110;2023-04-30T08:58:57;101872.40;;;9.80
65290;BMP180;51893;59.754;10.110;2023-04-30T09:01:28;101877.20;;;9.80
65290;BMP180;51893;59.754;10.110;2023-04-30T09:03:56;101882.00;;;9.90
65290;BMP180;51893;59.754;10.110;2023-04-30T09:06:25;101882.60;;;9.90
65290;BMP180;51893;59.754;10.110;2023-04-30T09:08:55;101888.80;;;9.80
65290;BMP180;51893;59.754;10.110;2023-04-30T09:11:30;101888.40;;;9.80
65290;BMP180;51893;59.754;10.110;2023-04-30T09:14:01;101891.60;;;9.80
65290;BMP180;51893;59.754;10.110;2023-04-30T09:19:31;101896.60;;;9.70
65290;BMP180;51893;59.754;10.110;2023-04-30T09:22:19;101894.20;;;9.70
65290;BMP180;51893;59.754;10.110;2023-04-30T09:24:50;101894.20;;;9.78
65290;BMP180;51893;59.754;10.110;2023-04-30T09:27:21;101897.20;;;9.80
65290;BMP180;51893;59.754;10.110;2023-04-30T09:29:50;101900.80;;;9.80
65290;BMP180;51893;59.754;10.110;2023-04-30T09:32:18;101903.40;;;9.82
65290;BMP180;51893;59.754;10.110;2023-04-30T09:34:46;101898.60;;;9.84
65290;BMP180;51893;59.754;10.110;2023-04-30T09:37:15;101899.80;;;9.86
65290;BMP180;51893;59.754;10.110;2023-04-30T09:39:53;101897.60;;;9.90
65290;BMP180;51893;59.754;10.110;2023-04-30T09:42:21;101905.40;;;10.00
65290;BMP180;51893;59.754;10.110;2023-04-30T09:44:52;101899.60;;;10.00
65290;BMP180;51893;59.754;10.110;2023-04-30T09:47:26;101894.00;;;10.20
65290;BMP180;51893;59.754;10.110;2023-04-30T09:49:59;101891.60;;;10.30
65290;BMP180;51893;59.754;10.110;2023-04-30T09:52:28;101903.60;;;10.40
65290;BMP180;51893;59.754;10.110;2023-04-30T09:54:56;101908.40;;;10.40
65290;BMP180;51893;59.754;10.110;2023-04-30T09:57:29;101904.60;;;10.40
65290;BMP180;51893;59.754;10.110;2023-04-30T10:00:01;101903.00;;;10.52
65290;BMP180;51893;59.754;10.110;2023-04-30T10:02:30;101903.20;;;10.70
65290;BMP180;51893;59.754;10.110;2023-04-30T10:05:01;101898.40;;;10.80
65290;BMP180;51893;59.754;10.110;2023-04-30T10:07:35;101897.80;;;10.84
65290;BMP180;51893;59.754;10.110;2023-04-30T10:10:10;101896.60;;;10.82
65290;BMP180;51893;59.754;10.110;2023-04-30T10:12:56;101896.80;;;10.90
65290;BMP180;51893;59.754;10.110;2023-04-30T10:15:44;101900.60;;;10.90
65290;BMP180;51893;59.754;10.110;2023-04-30T10:18:27;101904.60;;;11.00
65290;BMP180;51893;59.754;10.110;2023-04-30T10:21:02;101894.20;;;11.00
65290;BMP180;51893;59.754;10.110;2023-04-30T10:23:33;101894.80;;;11.10
65290;BMP180;51893;59.754;10.110;2023-04-30T10:26:02;101891.00;;;11.14
65290;BMP180;51893;59.754;10.110;2023-04-30T10:28:32;101891.20;;;11.20
65290;BMP180;51893;59.754;10.110;2023-04-30T10:31:05;101896.80;;;11.38
65290;BMP180;51893;59.754;10.110;2023-04-30T10:33:50;101897.80;;;11.40
65290;BMP180;51893;59.754;10.110;2023-04-30T10:36:49;101893.20;;;11.50
65290;BMP180;51893;59.754;10.110;2023-04-30T10:39:22;101892.80;;;11.60
65290;BMP180;51893;59.754;10.110;2023-04-30T10:42:05;101892.00;;;11.68
65290;BMP180;51893;59.754;10.110;2023-04-30T10:44:38;101883.40;;;11.80
65290;BMP180;51893;59.754;10.110;2023-04-30T10:47:09;101890.80;;;11.80
65290;BMP180;51893;59.754;10.110;2023-04-30T10:49:37;101891.40;;;11.86
65290;BMP180;51893;59.754;10.110;2023-04-30T10:52:05;101874.80;;;11.90
65290;BMP180;51893;59.754;10.110;2023-04-30T10:54:35;101875.20;;;12.00
65290;BMP180;51893;59.754;10.110;2023-04-30T10:57:16;101883.00;;;12.10
65290;BMP180;51893;59.754;10.110;2023-04-30T11:00:19;101890.80;;;12.20
65290;BMP180;51893;59.754;10.110;2023-04-30T11:02:48;101884.40;;;12.38
65290;BMP180;51893;59.754;10.110;2023-04-30T11:05:18;101889.40;;;12.32
65290;BMP180;51893;59.754;10.110;2023-04-30T11:07:50;101886.40;;;12.40
65290;BMP180;51893;59.754;10.110;2023-04-30T11:10:25;101892.60;;;12.40
65290;BMP180;51893;59.754;10.110;2023-04-30T11:13:05;101885.20;;;12.46
65290;BMP180;51893;59.754;10.110;2023-04-30T11:15:44;101897.00;;;12.40
65290;BMP180;51893;59.754;10.110;2023-04-30T11:18:12;101897.80;;;12.30
65290;BMP180;51893;59.754;10.110;2023-04-30T11:20:49;101893.60;;;12.30
65290;BMP180;51893;59.754;10.110;2023-04-30T11:23:22;101885.20;;;12.40
65290;BMP180;51893;59.754;10.110;2023-04-30T11:26:09;101877.60;;;12.38
65290;BMP180;51893;59.754;10.110;2023-04-30T11:28:50;101882.40;;;12.30
65290;BMP180;51893;59.754;10.110;2023-04-30T11:31:21;101881.00;;;12.30
65290;BMP180;51893;59.754;10.110;2023-04-30T11:34:01;101875.40;;;12.40
65290;BMP180;51893;59.754;10.110;2023-04-30T11:36:35;101878.80;;;12.50
65290;BMP180;51893;59.754;10.110;2023-04-30T11:39:04;101883.60;;;12.40
65290;BMP180;51893;59.754;10.110;2023-04-30T11:41:55;101883.60;;;12.40
65290;BMP180;51893;59.754;10.110;2023-04-30T11:44:26;101874.20;;;12.40
65290;BMP180;51893;59.754;10.110;2023-04-30T11:46:57;101871.60;;;12.50
65290;BMP180;51893;59.754;10.110;2023-04-30T11:49:26;101883.80;;;12.30
65290;BMP180;51893;59.754;10.110;2023-04-30T11:51:54;101877.20;;;12.30
65290;BMP180;51893;59.754;10.110;2023-04-30T11:54:23;101885.20;;;12.30
65290;BMP180;51893;59.754;10.110;2023-04-30T11:56:51;101880.40;;;12.30
65290;BMP180;51893;59.754;10.110;2023-04-30T11:59:19;101888.60;;;12.20
65290;BMP180;51893;59.754;10.110;2023-04-30T12:01:47;101883.80;;;12.10
65290;BMP180;51893;59.754;10.110;2023-04-30T12:04:22;101886.40;;;12.10
65290;BMP180;51893;59.754;10.110;2023-04-30T12:06:50;101889.00;;;11.90
65290;BMP180;51893;59.754;10.110;2023-04-30T12:09:20;101893.20;;;12.00
65290;BMP180;51893;59.754;10.110;2023-04-30T12:11:49;101883.80;;;12.00
65290;BMP180;51893;59.754;10.110;2023-04-30T12:14:24;101890.20;;;11.90
65290;BMP180;51893;59.754;10.110;2023-04-30T12:16:53;101890.40;;;12.00
65290;BMP180;51893;59.754;10.110;2023-04-30T12:19:24;101884.60;;;12.10
65290;BMP180;51893;59.754;10.110;2023-04-30T12:21:54;101889.00;;;12.10
65290;BMP180;51893;59.754;10.110;2023-04-30T12:24:25;101887.40;;;12.10
65290;BMP180;51893;59.754;10.110;2023-04-30T12:26:58;101890.00;;;12.10
65290;BMP180;51893;59.754;10.110;2023-04-30T12:29:28;101899.20;;;12.00
65290;BMP180;51893;59.754;10.110;2023-04-30T12:31:56;101886.20;;;12.00
65290;BMP180;51893;59.754;10.110;2023-04-30T12:34:29;101879.00;;;12.12
65290;BMP180;51893;59.754;10.110;2023-04-30T12:37:01;101887.80;;;12.10
65290;BMP180;51893;59.754;10.110;2023-04-30T12:39:33;101893.60;;;12.10
65290;BMP180;51893;59.754;10.110;2023-04-30T12:42:02;101886.40;;;12.10
65290;BMP180;51893;59.754;10.110;2023-04-30T12:44:43;101882.40;;;12.20
65290;BMP180;51893;59.754;10.110;2023-04-30T12:47:17;101886.00;;;12.22
65290;BMP180;51893;59.754;10.110;2023-04-30T12:49:48;101884.80;;;12.40
65290;BMP180;51893;59.754;10.110;2023-04-30T12:52:17;101888.40;;;12.22
65290;BMP180;51893;59.754;10.110;2023-04-30T12:54:45;101888.80;;;12.20
65290;BMP180;51893;59.754;10.110;2023-04-30T12:57:13;101889.40;;;12.10
65290;BMP180;51893;59.754;10.110;2023-04-30T13:02:16;101881.40;;;12.30
65290;BMP180;51893;59.754;10.110;2023-04-30T13:04:45;101872.20;;;12.50
65290;BMP180;51893;59.754;10.110;2023-04-30T13:07:13;101874.60;;;12.50
65290;BMP180;51893;59.754;10.110;2023-04-30T13:09:41;101871.40;;;12.40
65290;BMP180;51893;59.754;10.110;2023-04-30T13:12:09;101885.60;;;12.20
65290;BMP180;51893;59.754;10.110;2023-04-30T13:14:39;101889.80;;;12.10
65290;BMP180;51893;59.754;10.110;2023-04-30T13:17:08;101897.00;;;12.20
65290;BMP180;51893;59.754;10.110;2023-04-30T13:19:39;101898.20;;;12.48
65290;BMP180;51893;59.754;10.110;2023-04-30T13:22:09;101894.20;;;12.60
65290;BMP180;51893;59.754;10.110;2023-04-30T13:24:37;101894.00;;;12.60
65290;BMP180;51893;59.754;10.110;2023-04-30T13:27:08;101898.80;;;12.70
65290;BMP180;51893;59.754;10.110;2023-04-30T13:29:36;101898.20;;;12.58
65290;BMP180;51893;59.754;10.110;2023-04-30T13:32:04;101902.20;;;12.50
65290;BMP180;51893;59.754;10.110;2023-04-30T13:34:35;101897.40;;;12.56
65290;BMP180;51893;59.754;10.110;2023-04-30T13:37:05;101898.20;;;12.40
65290;BMP180;51893;59.754;10.110;2023-04-30T13:39:33;101897.20;;;12.40
65290;BMP180;51893;59.754;10.110;2023-04-30T13:42:02;101896.00;;;12.30
65290;BMP180;51893;59.754;10.110;2023-04-30T13:44:31;101895.20;;;12.36
65290;BMP180;51893;59.754;10.110;2023-04-30T13:47:01;101887.80;;;12.50
65290;BMP180;51893;59.754;10.110;2023-04-30T13:49:30;101901.60;;;12.50
65290;BMP180;51893;59.754;10.110;2023-04-30T13:51:59;101897.40;;;12.60
65290;BMP180;51893;59.754;10.110;2023-04-30T13:54:27;101908.20;;;12.40
65290;BMP180;51893;59.754;10.110;2023-04-30T13:56:55;101914.40;;;12.20
65290;BMP180;51893;59.754;10.110;2023-04-30T13:59:28;101910.40;;;12.22
65290;BMP180;51893;59.754;10.110;2023-04-30T14:01:57;101903.40;;;12.54
65290;BMP180;51893;59.754;10.110;2023-04-30T14:04:26;101904.20;;;12.70
65290;BMP180;51893;59.754;10.110;2023-04-30T14:06:55;101891.20;;;12.52
65290;BMP180;51893;59.754;10.110;2023-04-30T14:09:24;101894.40;;;12.50
65290;BMP180;51893;59.754;10.110;2023-04-30T14:11:55;101892.00;;;12.58
65290;BMP180;51893;59.754;10.110;2023-04-30T14:14:26;101888.40;;;12.84
65290;BMP180;51893;59.754;10.110;2023-04-30T14:16:55;101878.40;;;13.00
65290;BMP180;51893;59.754;10.110;2023-04-30T14:19:24;101878.00;;;13.26
65290;BMP180;51893;59.754;10.110;2023-04-30T14:21:53;101879.80;;;13.36
65290;BMP180;51893;59.754;10.110;2023-04-30T14:24:24;101885.00;;;13.20
65290;BMP180;51893;59.754;10.110;2023-04-30T14:26:52;101886.80;;;13.00
65290;BMP180;51893;59.754;10.110;2023-04-30T14:29:21;101896.60;;;12.80
65290;BMP180;51893;59.754;10.110;2023-04-30T14:31:49;101888.80;;;12.66